Time;durP1;ratioP1;P1;durP2;ratioP2;P2;SDS_P1;SDS_P2;PMS_P1;PMS_P2;Temp;Humidity;BMP_temperature;BMP_pressure;BME280_temperature;BME280_humidity;BME280_pressure;Samples;Min_cycle;Max_cycle;Signal;HPM_P1;HPM_P2
2021/07/08 00:02:11;;;;;;;;;;;26.90;62.30;;;;;;5121500;28;20393;-59
2021/07/08 00:04:40;;;;;;;;;;;26.90;62.30;;;;;;5121399;28;19955;-59
2021/07/08 00:07:09;;;;;;;;;;;26.90;62.40;;;;;;5133485;28;19967;-59
2021/07/08 00:09:37;;;;;;;;;;;26.90;62.40;;;;;;5133290;28;19928;-59
2021/07/08 00:12:06;;;;;;;;;;;26.90;62.50;;;;;;5131246;28;19923;-59
2021/07/08 00:14:34;;;;;;;;;;;26.90;62.50;;;;;;5130972;28;19923;-59
2021/07/08 00:17:02;;;;;;;;;;;26.90;62.40;;;;;;5128270;28;19976;-59
2021/07/08 00:19:29;;;;;;;;;;;26.90;62.40;;;;;;5132047;28;19971;-59
2021/07/08 00:21:56;;;;;;;;;;;26.90;62.70;;;;;;5129114;28;20593;-59
2021/07/08 00:24:23;;;;;;;;;;;26.90;62.50;;;;;;5130648;28;19924;-59
2021/07/08 00:26:51;;;;;;;;;;;26.90;62.60;;;;;;5133069;28;19923;-60
2021/07/08 00:29:18;;;;;;;;;;;26.90;62.70;;;;;;5132033;28;19924;-59
2021/07/08 00:31:45;;;;;;;;;;;26.90;62.80;;;;;;5112424;28;19931;-59
2021/07/08 00:34:12;;;;;;;;;;;26.90;62.70;;;;;;5131126;28;19931;-59
2021/07/08 00:36:39;;;;;;;;;;;26.90;62.60;;;;;;5118361;28;19928;-59
2021/07/08 00:39:06;;;;;;;;;;;26.90;63.00;;;;;;5131806;28;19923;-59
2021/07/08 00:41:33;;;;;;;;;;;26.90;63.20;;;;;;5130698;28;20010;-59
2021/07/08 00:44:00;;;;;;;;;;;26.80;63.10;;;;;;5131459;28;20010;-60
2021/07/08 00:46:27;;;;;;;;;;;26.80;63.40;;;;;;5117169;28;19977;-60
2021/07/08 00:48:54;;;;;;;;;;;26.80;63.00;;;;;;5129871;28;20007;-59
2021/07/08 00:51:21;;;;;;;;;;;26.80;63.10;;;;;;5133178;28;19995;-59
2021/07/08 00:53:48;;;;;;;;;;;26.80;63.40;;;;;;5132834;28;20006;-59
2021/07/08 00:56:15;;;;;;;;;;;26.80;63.40;;;;;;5120461;28;19959;-60
2021/07/08 00:58:46;;;;;;;;;;;26.80;63.40;;;;;;5125166;27;19924;-59
2021/07/08 01:01:13;;;;;;;;;;;26.80;63.10;;;;;;5132951;27;19923;-59
2021/07/08 01:03:40;;;;;;;;;;;26.80;63.00;;;;;;5136786;27;19950;-60
2021/07/08 01:06:08;;;;;;;;;;;26.80;63.30;;;;;;5132785;27;20379;-59
2021/07/08 01:08:35;;;;;;;;;;;26.80;63.20;;;;;;5135640;27;20353;-59
2021/07/08 01:11:02;;;;;;;;;;;26.80;63.40;;;;;;5132960;27;19934;-60
2021/07/08 01:13:29;;;;;;;;;;;26.80;63.00;;;;;;5134389;27;19923;-59
2021/07/08 01:15:56;;;;;;;;;;;26.80;63.30;;;;;;5133995;27;19924;-60
2021/07/08 01:18:23;;;;;;;;;;;26.80;63.50;;;;;;5135956;27;19972;-60
2021/07/08 01:20:50;;;;;;;;;;;26.80;63.20;;;;;;5136285;27;19931;-60
2021/07/08 01:23:17;;;;;;;;;;;26.80;63.60;;;;;;5133890;27;19931;-59
2021/07/08 01:25:44;;;;;;;;;;;26.80;63.70;;;;;;5135116;27;19992;-59
2021/07/08 01:28:11;;;;;;;;;;;26.80;63.60;;;;;;5135265;27;19928;-59
2021/07/08 01:30:38;;;;;;;;;;;26.80;63.20;;;;;;5133646;27;19927;-59
2021/07/08 01:33:06;;;;;;;;;;;26.80;63.30;;;;;;5133635;27;19923;-59
2021/07/08 01:35:33;;;;;;;;;;;26.80;63.00;;;;;;5130881;27;19947;-59
2021/07/08 01:38:01;;;;;;;;;;;26.80;63.20;;;;;;5134560;27;19931;-59
2021/07/08 01:40:28;;;;;;;;;;;26.70;63.10;;;;;;5133735;27;19992;-59
2021/07/08 01:42:55;;;;;;;;;;;26.70;63.10;;;;;;5120947;27;19923;-59
2021/07/08 01:45:23;;;;;;;;;;;26.70;63.20;;;;;;5117305;27;19924;-59
2021/07/08 01:47:50;;;;;;;;;;;26.70;63.00;;;;;;5129194;27;20376;-59
2021/07/08 01:50:18;;;;;;;;;;;26.70;63.30;;;;;;5134590;27;19927;-59
2021/07/08 01:52:46;;;;;;;;;;;26.70;63.30;;;;;;5131758;27;20014;-59
2021/07/08 01:55:14;;;;;;;;;;;26.70;63.10;;;;;;5133048;27;19974;-59
2021/07/08 01:57:42;;;;;;;;;;;26.70;63.00;;;;;;5117063;27;19928;-59
2021/07/08 02:00:11;;;;;;;;;;;26.70;63.00;;;;;;5132942;27;19923;-59
2021/07/08 02:02:38;;;;;;;;;;;26.70;63.00;;;;;;5133084;27;20019;-59
2021/07/08 02:05:06;;;;;;;;;;;26.70;63.10;;;;;;5133064;27;19924;-59
2021/07/08 02:07:34;;;;;;;;;;;26.70;63.10;;;;;;5134088;27;20375;-59
2021/07/08 02:10:01;;;;;;;;;;;26.70;63.30;;;;;;5130731;27;20279;-59
2021/07/08 02:12:28;;;;;;;;;;;26.70;63.20;;;;;;5133837;27;19923;-59
2021/07/08 02:14:55;;;;;;;;;;;26.70;63.20;;;;;;5132634;27;19923;-59
2021/07/08 02:17:22;;;;;;;;;;;26.70;63.10;;;;;;5132315;27;19927;-59
2021/07/08 02:19:49;;;;;;;;;;;26.60;63.10;;;;;;5132774;27;19924;-59
2021/07/08 02:22:16;;;;;;;;;;;26.60;63.00;;;;;;5133775;27;19953;-59
2021/07/08 02:24:43;;;;;;;;;;;26.60;63.10;;;;;;5133261;27;19958;-59
2021/07/08 02:27:10;;;;;;;;;;;26.60;63.10;;;;;;5134283;27;19935;-59
2021/07/08 02:29:37;;;;;;;;;;;26.60;63.10;;;;;;5132352;27;19928;-60
2021/07/08 02:32:07;;;;;;;;;;;26.60;63.10;;;;;;5134497;27;20379;-59
2021/07/08 02:34:36;;;;;;;;;;;26.60;63.00;;;;;;5115932;27;19973;-59
2021/07/08 02:37:04;;;;;;;;;;;26.60;63.00;;;;;;5132297;27;19924;-59
2021/07/08 02:39:31;;;;;;;;;;;26.60;63.00;;;;;;5116105;27;19923;-59
2021/07/08 02:41:58;;;;;;;;;;;26.60;63.00;;;;;;5130288;27;19981;-59
2021/07/08 02:44:25;;;;;;;;;;;26.60;62.90;;;;;;5131905;27;19924;-59
2021/07/08 02:46:52;;;;;;;;;;;26.60;62.90;;;;;;5134487;27;19953;-59
2021/07/08 02:49:19;;;;;;;;;;;26.60;63.00;;;;;;5132935;27;19923;-59
2021/07/08 02:51:46;;;;;;;;;;;26.60;63.00;;;;;;5131801;27;19983;-57
2021/07/08 02:54:13;;;;;;;;;;;26.60;63.00;;;;;;5130546;27;19930;-57
2021/07/08 02:56:41;;;;;;;;;;;26.60;62.90;;;;;;5134328;27;19934;-57
2021/07/08 02:59:07;;;;;;;;;;;26.60;63.00;;;;;;5131826;27;20320;-58
2021/07/08 03:01:35;;;;;;;;;;;26.60;62.80;;;;;;5131747;27;20611;-58
2021/07/08 03:04:02;;;;;;;;;;;26.60;62.90;;;;;;5130548;27;19935;-58
2021/07/08 03:06:29;;;;;;;;;;;26.60;62.70;;;;;;5133412;27;20027;-58
2021/07/08 03:08:56;;;;;;;;;;;26.60;62.90;;;;;;5130635;27;19992;-58
2021/07/08 03:11:23;;;;;;;;;;;26.60;62.80;;;;;;5131004;27;20004;-58
2021/07/08 03:13:50;;;;;;;;;;;26.60;62.60;;;;;;5133980;27;19931;-59
2021/07/08 03:16:18;;;;;;;;;;;26.60;62.70;;;;;;5130498;27;19923;-58
2021/07/08 03:18:45;;;;;;;;;;;26.60;62.70;;;;;;5130490;27;19924;-58
2021/07/08 03:21:16;;;;;;;;;;;26.60;62.70;;;;;;5132286;27;20405;-58
2021/07/08 03:23:43;;;;;;;;;;;26.50;62.50;;;;;;5132543;27;19969;-59
2021/07/08 03:26:10;;;;;;;;;;;26.50;62.70;;;;;;5115494;27;19931;-58
2021/07/08 03:28:37;;;;;;;;;;;26.50;62.80;;;;;;5132733;27;19977;-58
2021/07/08 03:31:04;;;;;;;;;;;26.50;62.60;;;;;;5114932;28;19959;-58
2021/07/08 03:33:31;;;;;;;;;;;26.50;62.80;;;;;;5132530;27;20382;-58
2021/07/08 03:35:58;;;;;;;;;;;26.50;62.70;;;;;;5114897;27;19946;-58
2021/07/08 03:38:25;;;;;;;;;;;26.50;62.60;;;;;;5131869;27;19955;-58
2021/07/08 03:40:52;;;;;;;;;;;26.50;62.80;;;;;;5129973;27;19927;-58
2021/07/08 03:43:19;;;;;;;;;;;26.50;62.70;;;;;;5131609;27;19930;-58
2021/07/08 03:45:46;;;;;;;;;;;26.50;62.60;;;;;;5132674;27;20014;-59
2021/07/08 03:48:13;;;;;;;;;;;26.50;62.70;;;;;;5132489;27;19993;-58
2021/07/08 03:50:40;;;;;;;;;;;26.50;62.70;;;;;;5132404;27;19923;-58
2021/07/08 03:53:07;;;;;;;;;;;26.50;62.60;;;;;;5132496;28;20341;-58
2021/07/08 03:55:34;;;;;;;;;;;26.50;62.60;;;;;;5131143;28;20020;-58
2021/07/08 03:58:01;;;;;;;;;;;26.50;62.60;;;;;;5130955;28;19966;-58
2021/07/08 04:00:30;;;;;;;;;;;26.50;62.50;;;;;;5133332;28;19924;-58
2021/07/08 04:02:58;;;;;;;;;;;26.50;62.70;;;;;;5133358;28;20375;-58
2021/07/08 04:05:25;;;;;;;;;;;26.50;62.60;;;;;;5115318;28;19935;-58
2021/07/08 04:07:52;;;;;;;;;;;26.50;62.60;;;;;;5132093;28;20085;-58
2021/07/08 04:10:19;;;;;;;;;;;26.50;62.60;;;;;;5132224;28;19977;-58
2021/07/08 04:12:46;;;;;;;;;;;26.60;62.70;;;;;;5111695;28;19928;-58
2021/07/08 04:15:14;;;;;;;;;;;26.60;62.60;;;;;;5131280;28;19974;-59
2021/07/08 04:17:41;;;;;;;;;;;26.60;62.60;;;;;;5130658;28;19924;-58
2021/07/08 04:20:10;;;;;;;;;;;26.60;62.50;;;;;;5112783;28;19924;-58
2021/07/08 04:22:37;;;;;;;;;;;26.60;62.60;;;;;;5094916;28;20303;-59
2021/07/08 04:25:05;;;;;;;;;;;26.60;62.40;;;;;;5130853;28;20382;-58
2021/07/08 04:27:32;;;;;;;;;;;26.60;62.40;;;;;;5133100;28;19923;-59
2021/07/08 04:29:59;;;;;;;;;;;26.60;62.40;;;;;;5131592;28;19927;-58
2021/07/08 04:32:26;;;;;;;;;;;26.60;62.40;;;;;;5130477;27;19927;-58
2021/07/08 04:34:53;;;;;;;;;;;26.70;62.40;;;;;;5135590;27;19923;-58
2021/07/08 04:37:20;;;;;;;;;;;26.70;62.30;;;;;;5132663;27;19978;-58
2021/07/08 04:39:47;;;;;;;;;;;26.70;62.30;;;;;;5134660;27;19927;-58
2021/07/08 04:42:14;;;;;;;;;;;26.70;62.20;;;;;;5134964;27;19968;-59
2021/07/08 04:44:41;;;;;;;;;;;26.80;62.10;;;;;;5133179;27;19972;-58
2021/07/08 04:47:08;;;;;;;;;;;26.80;62.10;;;;;;5135813;27;19963;-58
2021/07/08 04:49:35;;;;;;;;;;;26.80;61.90;;;;;;5133125;27;19923;-58
2021/07/08 04:52:02;;;;;;;;;;;26.80;61.70;;;;;;5133327;27;19924;-59
2021/07/08 04:54:29;;;;;;;;;;;26.90;61.80;;;;;;5128333;27;19977;-59
2021/07/08 04:56:56;;;;;;;;;;;26.90;61.70;;;;;;5124640;27;19988;-59
2021/07/08 04:59:24;;;;;;;;;;;27.00;61.50;;;;;;5132988;27;19968;-59
2021/07/08 05:01:51;;;;;;;;;;;27.00;61.40;;;;;;5135118;27;19923;-59
2021/07/08 05:04:20;;;;;;;;;;;27.00;61.20;;;;;;5131621;27;20212;-59
2021/07/08 05:06:47;;;;;;;;;;;27.10;61.10;;;;;;5133920;27;20386;-59
2021/07/08 05:09:13;;;;;;;;;;;27.10;61.70;;;;;;5136731;27;20296;-59
2021/07/08 05:11:42;;;;;;;;;;;27.10;60.80;;;;;;5134127;27;19976;-59
2021/07/08 05:14:09;;;;;;;;;;;27.20;60.70;;;;;;5134330;27;19924;-59
2021/07/08 05:16:36;;;;;;;;;;;27.20;60.60;;;;;;5116937;27;19924;-59
2021/07/08 05:19:04;;;;;;;;;;;27.20;60.50;;;;;;5135016;27;20382;-59
2021/07/08 05:21:31;;;;;;;;;;;27.20;60.30;;;;;;5134072;27;20430;-59
2021/07/08 05:24:01;;;;;;;;;;;27.20;60.30;;;;;;5136758;27;20034;-59
2021/07/08 05:26:28;;;;;;;;;;;27.20;60.20;;;;;;5133895;27;19976;-59
2021/07/08 05:28:55;;;;;;;;;;;27.30;60.90;;;;;;5133280;27;20300;-59
2021/07/08 05:31:22;;;;;;;;;;;27.30;60.00;;;;;;5135149;27;19996;-59
2021/07/08 05:33:49;;;;;;;;;;;27.30;59.90;;;;;;5132235;27;19973;-59
2021/07/08 05:36:16;;;;;;;;;;;27.40;59.80;;;;;;5119609;27;19977;-59
2021/07/08 05:38:43;;;;;;;;;;;27.40;59.80;;;;;;5129787;27;19974;-59
2021/07/08 05:41:10;;;;;;;;;;;27.40;59.60;;;;;;5133516;27;20301;-59
2021/07/08 05:43:37;;;;;;;;;;;27.40;59.60;;;;;;5134348;27;19971;-60
2021/07/08 05:46:04;;;;;;;;;;;27.40;59.50;;;;;;5133422;27;19923;-59
2021/07/08 05:48:31;;;;;;;;;;;27.40;59.40;;;;;;5132206;27;20339;-59
2021/07/08 05:50:58;;;;;;;;;;;27.40;59.30;;;;;;5133307;27;19927;-59
2021/07/08 05:53:25;;;;;;;;;;;27.40;59.30;;;;;;5132984;27;19952;-59
2021/07/08 05:55:52;;;;;;;;;;;27.40;59.30;;;;;;5127692;27;20411;-59
2021/07/08 05:58:19;;;;;;;;;;;27.40;59.30;;;;;;5121261;27;19923;-59
2021/07/08 06:00:48;;;;;;;;;;;27.40;59.30;;;;;;5133604;27;20324;-59
2021/07/08 06:03:16;;;;;;;;;;;27.40;59.10;;;;;;5132779;27;19923;-59
2021/07/08 06:05:43;;;;;;;;;;;27.40;59.00;;;;;;5118810;27;19946;-59
2021/07/08 06:08:10;;;;;;;;;;;27.50;58.90;;;;;;5119268;27;19931;-60
2021/07/08 06:10:37;;;;;;;;;;;27.50;58.70;;;;;;5135129;27;20403;-59
2021/07/08 06:13:04;;;;;;;;;;;27.50;58.70;;;;;;5117433;27;20294;-60
2021/07/08 06:15:31;;;;;;;;;;;27.50;58.50;;;;;;5117566;27;19988;-60
2021/07/08 06:17:58;;;;;;;;;;;27.50;58.50;;;;;;5133014;27;20444;-60
2021/07/08 06:20:25;;;;;;;;;;;27.40;58.40;;;;;;5134025;27;19931;-60
2021/07/08 06:22:52;;;;;;;;;;;27.50;58.20;;;;;;5131739;27;19962;-60
2021/07/08 06:25:20;;;;;;;;;;;27.50;58.20;;;;;;5123819;27;19947;-60
2021/07/08 06:27:47;;;;;;;;;;;27.50;58.30;;;;;;5132322;27;19976;-59
2021/07/08 06:30:15;;;;;;;;;;;27.50;58.20;;;;;;5120924;27;19976;-60
2021/07/08 06:32:42;;;;;;;;;;;27.50;58.10;;;;;;5128738;27;19927;-60
2021/07/08 06:35:14;;;;;;;;;;;27.50;58.00;;;;;;5120289;27;19927;-60
2021/07/08 06:37:41;;;;;;;;;;;27.50;58.00;;;;;;5131923;27;19980;-60
2021/07/08 06:40:08;;;;;;;;;;;27.50;58.00;;;;;;5134011;27;19923;-60
2021/07/08 06:42:35;;;;;;;;;;;27.50;58.10;;;;;;5131964;27;19927;-60
2021/07/08 06:45:03;;;;;;;;;;;27.50;58.10;;;;;;5133081;27;19923;-60
2021/07/08 06:47:37;;;;;;;;;;;27.50;58.10;;;;;;5133292;27;19923;-60
2021/07/08 06:50:06;;;;;;;;;;;27.50;58.10;;;;;;5132397;27;19923;-59
2021/07/08 06:52:33;;;;;;;;;;;27.50;58.10;;;;;;5134754;27;19923;-60
2021/07/08 06:55:00;;;;;;;;;;;27.50;58.00;;;;;;5132843;27;19923;-59
2021/07/08 06:57:27;;;;;;;;;;;27.50;58.00;;;;;;5132941;27;19987;-60
2021/07/08 06:59:54;;;;;;;;;;;27.60;58.10;;;;;;5130484;27;19976;-59
2021/07/08 07:02:21;;;;;;;;;;;27.60;58.00;;;;;;5133172;27;19932;-59
2021/07/08 07:04:48;;;;;;;;;;;27.60;58.00;;;;;;5133391;27;20018;-59
2021/07/08 07:07:15;;;;;;;;;;;27.60;58.00;;;;;;5131554;27;19930;-59
2021/07/08 07:09:43;;;;;;;;;;;27.60;58.20;;;;;;5132783;27;20390;-58
2021/07/08 07:12:10;;;;;;;;;;;27.60;58.00;;;;;;5133056;27;19923;-58
2021/07/08 07:14:37;;;;;;;;;;;27.60;58.10;;;;;;5132246;27;20407;-59
2021/07/08 07:17:04;;;;;;;;;;;27.60;58.10;;;;;;5133178;27;19958;-59
2021/07/08 07:19:30;;;;;;;;;;;27.60;58.10;;;;;;5132819;27;19923;-58
2021/07/08 07:22:00;;;;;;;;;;;27.60;58.00;;;;;;5132041;27;19938;-58
2021/07/08 07:24:27;;;;;;;;;;;27.60;58.10;;;;;;5131210;27;19966;-59
2021/07/08 07:26:54;;;;;;;;;;;27.60;58.10;;;;;;5132966;27;19930;-58
2021/07/08 07:29:21;;;;;;;;;;;27.60;58.10;;;;;;5118061;27;19938;-59
2021/07/08 07:31:48;;;;;;;;;;;27.70;58.10;;;;;;5129057;27;19924;-59
2021/07/08 07:34:15;;;;;;;;;;;27.60;58.10;;;;;;5131284;27;19924;-59
2021/07/08 07:36:42;;;;;;;;;;;27.70;58.20;;;;;;5119215;27;19928;-59
2021/07/08 07:39:09;;;;;;;;;;;27.70;58.20;;;;;;5115109;27;19963;-58
2021/07/08 07:41:36;;;;;;;;;;;27.70;58.20;;;;;;5115833;27;19924;-59
2021/07/08 07:44:03;;;;;;;;;;;27.70;58.30;;;;;;5123994;27;19924;-59
2021/07/08 07:46:30;;;;;;;;;;;27.70;58.30;;;;;;5130029;27;19962;-59
2021/07/08 07:48:57;;;;;;;;;;;27.70;58.30;;;;;;5114474;27;19927;-59
2021/07/08 07:51:24;;;;;;;;;;;27.70;58.40;;;;;;5133311;27;19923;-59
2021/07/08 07:53:51;;;;;;;;;;;27.70;58.30;;;;;;5130934;28;19927;-59
2021/07/08 07:56:18;;;;;;;;;;;27.80;58.40;;;;;;5132057;28;19923;-59
2021/07/08 07:58:45;;;;;;;;;;;27.80;58.40;;;;;;5130058;28;19930;-59
2021/07/08 08:01:13;;;;;;;;;;;27.80;58.40;;;;;;5096313;28;19955;-60
2021/07/08 08:03:42;;;;;;;;;;;27.80;58.30;;;;;;5119761;28;19995;-60
2021/07/08 08:08:55;;;;;;;;;;;27.80;58.30;;;;;;5119521;27;19930;-60
2021/07/08 08:11:22;;;;;;;;;;;27.80;58.40;;;;;;5137705;27;20006;-60
2021/07/08 08:13:50;;;;;;;;;;;27.80;58.30;;;;;;5137013;27;19923;-60
2021/07/08 08:16:17;;;;;;;;;;;27.90;58.40;;;;;;5118944;27;20017;-60
2021/07/08 08:18:44;;;;;;;;;;;27.90;58.40;;;;;;5135199;27;19966;-60
2021/07/08 08:21:13;;;;;;;;;;;27.90;58.40;;;;;;5137475;27;20015;-50
2021/07/08 08:23:40;;;;;;;;;;;27.90;58.30;;;;;;5136433;27;20325;-60
2021/07/08 08:26:07;;;;;;;;;;;27.90;58.30;;;;;;5135173;27;19978;-60
2021/07/08 08:28:34;;;;;;;;;;;27.90;58.30;;;;;;5136340;27;19924;-60
2021/07/08 08:31:01;;;;;;;;;;;27.90;58.30;;;;;;5134658;27;19977;-60
2021/07/08 08:33:33;;;;;;;;;;;27.90;58.30;;;;;;5137033;27;19923;-60
2021/07/08 08:36:00;;;;;;;;;;;27.90;58.30;;;;;;5135228;27;19931;-60
2021/07/08 08:38:27;;;;;;;;;;;27.90;58.40;;;;;;5137285;27;20336;-60
2021/07/08 08:40:55;;;;;;;;;;;27.90;58.30;;;;;;5133512;27;19985;-60
2021/07/08 08:43:22;;;;;;;;;;;28.00;58.40;;;;;;5133140;27;20570;-60
2021/07/08 08:45:50;;;;;;;;;;;28.00;58.50;;;;;;5137122;27;19988;-60
2021/07/08 08:48:17;;;;;;;;;;;27.90;58.40;;;;;;5127861;27;19924;-60
2021/07/08 08:50:45;;;;;;;;;;;28.00;58.40;;;;;;5117231;27;19998;-60
2021/07/08 08:53:13;;;;;;;;;;;28.00;58.50;;;;;;5124302;27;20435;-60
2021/07/08 08:55:41;;;;;;;;;;;28.00;58.40;;;;;;5127744;27;20003;-61
2021/07/08 08:58:09;;;;;;;;;;;28.00;58.50;;;;;;5122636;27;19998;-60
2021/07/08 09:00:37;;;;;;;;;;;28.00;58.50;;;;;;5132794;27;19923;-58
2021/07/08 09:03:06;;;;;;;;;;;28.00;58.50;;;;;;5136351;27;19924;-59
2021/07/08 09:05:34;;;;;;;;;;;28.00;58.50;;;;;;5133849;27;19929;-59
2021/07/08 09:08:15;;;;;;;;;;;28.10;58.40;;;;;;5133911;27;19928;-58
2021/07/08 09:10:43;;;;;;;;;;;28.00;58.50;;;;;;5134364;27;20413;-58
2021/07/08 09:13:10;;;;;;;;;;;28.10;58.50;;;;;;5134424;27;20276;-60
2021/07/08 09:15:37;;;;;;;;;;;28.10;58.40;;;;;;5116899;27;19931;-59
2021/07/08 09:18:04;;;;;;;;;;;28.10;58.50;;;;;;5134936;27;19923;-59
2021/07/08 09:20:33;;;;;;;;;;;28.10;58.60;;;;;;5132635;27;19950;-59
2021/07/08 09:23:06;;;;;;;;;;;28.10;58.40;;;;;;5134906;27;19927;-59
2021/07/08 09:25:33;;;;;;;;;;;28.20;58.50;;;;;;5115823;28;19931;-59
2021/07/08 09:28:20;;;;;;;;;;;28.20;58.40;;;;;;5116642;27;20303;-59
2021/07/08 09:30:59;;;;;;;;;;;28.20;58.50;;;;;;5116942;27;19927;-59
2021/07/08 09:33:52;;;;;;;;;;;28.20;58.40;;;;;;5119044;27;19923;-59
2021/07/08 09:36:19;;;;;;;;;;;28.20;58.40;;;;;;5125626;27;20006;-59
2021/07/08 09:38:55;;;;;;;;;;;28.20;58.40;;;;;;5119473;27;19931;-59
2021/07/08 09:41:24;;;;;;;;;;;28.20;58.50;;;;;;5133592;27;19931;-59
2021/07/08 09:43:52;;;;;;;;;;;28.20;58.50;;;;;;5131907;27;19985;-59
2021/07/08 09:46:32;;;;;;;;;;;28.20;58.30;;;;;;5118564;27;20260;-59
2021/07/08 09:49:06;;;;;;;;;;;28.20;58.40;;;;;;5134709;27;19972;-59
2021/07/08 09:51:34;;;;;;;;;;;28.20;58.30;;;;;;5116232;27;20011;-59
2021/07/08 09:54:12;;;;;;;;;;;28.20;58.30;;;;;;5133285;27;19976;-59
2021/07/08 09:56:54;;;;;;;;;;;28.20;58.40;;;;;;5132961;27;19927;-59
2021/07/08 09:59:33;;;;;;;;;;;28.30;58.40;;;;;;5132906;27;19928;-60
2021/07/08 10:02:00;;;;;;;;;;;28.30;58.50;;;;;;5131911;27;20319;-59
2021/07/08 10:04:28;;;;;;;;;;;28.30;58.50;;;;;;5132752;27;19931;-59
2021/07/08 10:06:55;;;;;;;;;;;28.30;58.50;;;;;;5133766;27;20318;-59
2021/07/08 10:09:23;;;;;;;;;;;28.30;58.40;;;;;;5134195;27;19947;-60
2021/07/08 10:11:52;;;;;;;;;;;28.30;58.60;;;;;;5114793;28;19931;-59
2021/07/08 10:14:19;;;;;;;;;;;28.30;58.60;;;;;;5135202;27;19930;-59
2021/07/08 10:16:50;;;;;;;;;;;28.30;58.60;;;;;;5132940;27;19930;-59
2021/07/08 10:19:19;;;;;;;;;;;28.30;59.10;;;;;;5133083;27;19923;-59
2021/07/08 10:21:47;;;;;;;;;;;28.30;58.70;;;;;;5134851;27;19949;-59
2021/07/08 10:24:18;;;;;;;;;;;28.30;58.70;;;;;;5132349;27;19976;-59
2021/07/08 10:26:45;;;;;;;;;;;28.30;59.10;;;;;;5131276;27;19923;-59
2021/07/08 10:29:13;;;;;;;;;;;28.40;58.60;;;;;;5132759;27;19942;-59
2021/07/08 10:31:41;;;;;;;;;;;28.40;58.60;;;;;;5115524;27;20374;-59
2021/07/08 10:34:09;;;;;;;;;;;28.40;58.50;;;;;;5133397;27;19930;-59
2021/07/08 10:36:37;;;;;;;;;;;28.40;58.50;;;;;;5119879;27;20268;-59
2021/07/08 10:39:15;;;;;;;;;;;28.40;58.60;;;;;;5117742;27;19924;-59
2021/07/08 10:41:49;;;;;;;;;;;28.40;58.50;;;;;;5131967;27;20238;-59
2021/07/08 10:44:34;;;;;;;;;;;28.40;59.00;;;;;;5114124;27;20322;-59
2021/07/08 10:47:02;;;;;;;;;;;28.40;58.40;;;;;;5133431;27;19976;-59
2021/07/08 10:49:36;;;;;;;;;;;28.50;58.50;;;;;;5133273;27;19923;-59
2021/07/08 10:52:06;;;;;;;;;;;28.60;58.30;;;;;;5131830;27;19927;-59
2021/07/08 10:54:33;;;;;;;;;;;28.60;58.30;;;;;;5131807;27;20363;-59
2021/07/08 10:57:01;;;;;;;;;;;28.60;58.00;;;;;;5130794;27;20435;-59
2021/07/08 10:59:42;;;;;;;;;;;28.70;58.10;;;;;;5133306;27;19923;-59
2021/07/08 11:02:40;;;;;;;;;;;28.70;58.00;;;;;;5133489;27;19923;-59
2021/07/08 11:05:07;;;;;;;;;;;28.80;58.00;;;;;;5116646;27;19930;-59
2021/07/08 11:07:44;;;;;;;;;;;28.80;57.60;;;;;;5131593;27;19958;-59
2021/07/08 11:10:11;;;;;;;;;;;28.90;57.50;;;;;;5117859;27;19949;-59
2021/07/08 11:12:43;;;;;;;;;;;28.90;57.40;;;;;;5128799;27;19928;-59
2021/07/08 11:15:10;;;;;;;;;;;28.90;57.40;;;;;;5131971;27;20047;-59
2021/07/08 11:17:39;;;;;;;;;;;29.00;57.30;;;;;;5119541;27;20438;-59
2021/07/08 11:20:27;;;;;;;;;;;29.00;57.40;;;;;;5125588;27;19923;-60
2021/07/08 11:22:54;;;;;;;;;;;29.00;57.30;;;;;;5132644;27;19934;-59
2021/07/08 11:25:39;;;;;;;;;;;29.00;57.40;;;;;;5131788;27;20322;-59
2021/07/08 11:28:24;;;;;;;;;;;29.00;57.20;;;;;;5130156;27;19924;-59
2021/07/08 11:30:58;;;;;;;;;;;29.10;57.20;;;;;;5115508;27;19924;-59
2021/07/08 11:33:25;;;;;;;;;;;29.10;57.20;;;;;;5131690;27;20338;-59
2021/07/08 11:35:57;;;;;;;;;;;29.10;57.30;;;;;;5125376;27;20510;-59
2021/07/08 11:38:26;;;;;;;;;;;29.00;57.00;;;;;;5130731;27;19924;-59
2021/07/08 11:40:53;;;;;;;;;;;29.00;57.50;;;;;;5112271;27;20010;-59
2021/07/08 11:43:36;;;;;;;;;;;29.00;57.30;;;;;;5130788;27;19924;-59
2021/07/08 11:46:10;;;;;;;;;;;29.00;57.50;;;;;;5131271;27;19975;-59
2021/07/08 11:48:38;;;;;;;;;;;28.90;57.60;;;;;;5130179;27;19935;-59
2021/07/08 11:51:32;;;;;;;;;;;28.90;57.80;;;;;;5116988;27;20010;-59
2021/07/08 11:53:59;;;;;;;;;;;28.80;57.70;;;;;;5114180;27;19924;-60
2021/07/08 11:56:27;;;;;;;;;;;28.80;58.30;;;;;;5129503;28;19924;-60
2021/07/08 11:58:54;;;;;;;;;;;28.70;58.30;;;;;;5130951;28;19969;-60
2021/07/08 12:01:21;;;;;;;;;;;28.70;58.60;;;;;;5132439;28;19963;-60
2021/07/08 12:03:48;;;;;;;;;;;28.60;58.70;;;;;;5133345;28;19969;-60
2021/07/08 12:06:15;;;;;;;;;;;28.60;58.70;;;;;;5130974;28;19974;-59
2021/07/08 12:08:43;;;;;;;;;;;28.60;60.10;;;;;;5122900;28;19976;-59
2021/07/08 12:11:15;;;;;;;;;;;28.60;60.80;;;;;;5122761;28;19972;-59
2021/07/08 12:13:52;;;;;;;;;;;28.60;60.50;;;;;;5129872;28;20282;-59
2021/07/08 12:16:27;;;;;;;;;;;28.60;61.50;;;;;;5130938;28;19931;-59
2021/07/08 12:18:54;;;;;;;;;;;28.60;61.50;;;;;;5130651;28;19931;-59
2021/07/08 12:21:21;;;;;;;;;;;28.60;61.70;;;;;;5132232;28;19924;-59
2021/07/08 12:23:49;;;;;;;;;;;28.70;61.50;;;;;;5115067;28;19970;-60
2021/07/08 12:26:22;;;;;;;;;;;28.70;61.10;;;;;;5130578;28;19931;-59
2021/07/08 12:28:49;;;;;;;;;;;28.80;61.50;;;;;;5133000;28;19928;-59
2021/07/08 12:31:18;;;;;;;;;;;28.80;61.70;;;;;;5129780;28;19973;-59
2021/07/08 12:33:52;;;;;;;;;;;28.80;61.70;;;;;;5130768;28;19972;-59
2021/07/08 12:36:19;;;;;;;;;;;28.90;61.30;;;;;;5129740;28;19923;-59
2021/07/08 12:38:47;;;;;;;;;;;28.90;61.00;;;;;;5127522;28;19982;-59
2021/07/08 12:41:15;;;;;;;;;;;28.90;61.20;;;;;;5115314;28;19928;-59
2021/07/08 12:43:42;;;;;;;;;;;28.90;60.60;;;;;;5116121;28;19987;-60
2021/07/08 12:46:13;;;;;;;;;;;28.90;59.70;;;;;;5116162;28;20400;-60
2021/07/08 12:48:41;;;;;;;;;;;28.90;60.70;;;;;;5115003;28;20368;-60
2021/07/08 12:51:09;;;;;;;;;;;29.00;60.00;;;;;;5115372;28;19985;-60
2021/07/08 12:53:36;;;;;;;;;;;29.00;59.80;;;;;;5130751;27;20329;-60
2021/07/08 12:56:10;;;;;;;;;;;29.00;59.60;;;;;;5134699;27;20371;-59
2021/07/08 12:58:37;;;;;;;;;;;29.10;59.60;;;;;;5124017;27;19973;-59
2021/07/08 13:01:05;;;;;;;;;;;29.10;59.70;;;;;;5134232;27;19928;-59
2021/07/08 13:03:34;;;;;;;;;;;29.10;59.70;;;;;;5135604;27;19966;-60
2021/07/08 13:06:27;;;;;;;;;;;29.10;59.50;;;;;;5117588;27;19931;-59
2021/07/08 13:09:05;;;;;;;;;;;29.10;59.50;;;;;;5111936;28;19982;-59
2021/07/08 13:11:32;;;;;;;;;;;29.10;59.70;;;;;;5117055;27;19927;-59
2021/07/08 13:14:15;;;;;;;;;;;29.00;59.80;;;;;;5134323;27;19923;-59
2021/07/08 13:16:59;;;;;;;;;;;29.00;59.80;;;;;;5117592;27;19976;-59
2021/07/08 13:19:26;;;;;;;;;;;29.00;60.10;;;;;;5117098;27;19923;-60
2021/07/08 13:21:53;;;;;;;;;;;29.00;60.00;;;;;;5132098;27;19977;-59
2021/07/08 13:24:22;;;;;;;;;;;28.90;60.20;;;;;;5133845;27;20464;-59
2021/07/08 13:26:49;;;;;;;;;;;28.90;60.20;;;;;;5134188;27;19924;-59
2021/07/08 13:29:22;;;;;;;;;;;28.90;59.90;;;;;;5133614;27;20351;-59
2021/07/08 13:31:50;;;;;;;;;;;28.90;60.20;;;;;;5136143;27;19938;-59
2021/07/08 13:34:23;;;;;;;;;;;28.90;60.30;;;;;;5134756;27;20052;-59
2021/07/08 13:36:53;;;;;;;;;;;28.90;59.70;;;;;;5119169;27;19986;-59
2021/07/08 13:39:24;;;;;;;;;;;28.90;60.10;;;;;;5118514;27;19976;-59
2021/07/08 13:42:03;;;;;;;;;;;28.90;60.00;;;;;;5133986;27;19923;-59
2021/07/08 13:44:31;;;;;;;;;;;28.90;59.80;;;;;;5135808;27;20256;-59
2021/07/08 13:47:00;;;;;;;;;;;28.90;59.80;;;;;;5133563;27;20391;-59
2021/07/08 13:49:34;;;;;;;;;;;28.90;59.70;;;;;;5133279;27;19923;-59
2021/07/08 13:52:07;;;;;;;;;;;28.90;59.70;;;;;;5131801;27;19958;-59
2021/07/08 13:54:35;;;;;;;;;;;28.90;59.60;;;;;;5132385;27;19923;-59
2021/07/08 13:57:04;;;;;;;;;;;28.90;59.60;;;;;;5132164;27;20336;-59
2021/07/08 13:59:31;;;;;;;;;;;29.00;59.50;;;;;;5131598;27;19934;-59
2021/07/08 14:01:58;;;;;;;;;;;29.00;59.70;;;;;;5134211;27;19966;-59
2021/07/08 14:04:27;;;;;;;;;;;29.00;59.40;;;;;;5116626;27;20290;-59
2021/07/08 14:06:54;;;;;;;;;;;29.10;59.50;;;;;;5135246;27;20402;-59
2021/07/08 14:09:23;;;;;;;;;;;29.10;59.30;;;;;;5132801;27;19976;-59
2021/07/08 14:11:55;;;;;;;;;;;29.10;59.60;;;;;;5131877;27;19973;-59
2021/07/08 14:14:23;;;;;;;;;;;29.10;59.90;;;;;;5131548;27;19972;-59
2021/07/08 14:16:50;;;;;;;;;;;29.10;59.80;;;;;;5090311;28;19981;-59
2021/07/08 14:19:19;;;;;;;;;;;29.10;59.50;;;;;;5124106;27;20006;-59
2021/07/08 14:21:46;;;;;;;;;;;29.10;59.30;;;;;;5133850;27;20006;-59
2021/07/08 14:24:14;;;;;;;;;;;29.20;59.20;;;;;;5131347;27;19924;-59
2021/07/08 14:26:41;;;;;;;;;;;29.10;59.30;;;;;;5131574;27;19923;-59
2021/07/08 14:29:09;;;;;;;;;;;29.10;59.50;;;;;;5131960;27;19927;-59